createdAt,value
2022-10-06T00:00:51.433Z,5.05
2022-10-06T00:03:18.470Z,4.63
2022-10-06T00:05:45.286Z,4.80
2022-10-06T00:08:12.128Z,5.00
2022-10-06T00:10:40.416Z,6.25
2022-10-06T00:13:08.999Z,6.50
2022-10-06T00:15:36.342Z,6.83
2022-10-06T00:18:03.738Z,7.10
2022-10-06T00:20:30.751Z,7.63
2022-10-06T00:22:57.507Z,9.23
2022-10-06T00:25:26.188Z,11.63
2022-10-06T00:27:54.090Z,13.30
2022-10-06T00:30:24.510Z,9.45
2022-10-06T00:32:53.182Z,11.75
2022-10-06T00:35:21.237Z,9.40
2022-10-06T00:37:48.434Z,6.53
2022-10-06T00:40:15.608Z,7.27
2022-10-06T00:42:52.123Z,6.97
2022-10-06T00:45:24.139Z,6.18
2022-10-06T00:47:51.149Z,5.97
2022-10-06T00:50:19.039Z,4.38
2022-10-06T00:52:46.063Z,5.50
2022-10-06T00:55:14.266Z,6.75
2022-10-06T00:57:41.755Z,3.90
2022-10-06T01:00:09.411Z,4.97
2022-10-06T01:02:48.490Z,4.32
2022-10-06T01:05:31.222Z,5.37
2022-10-06T01:07:58.266Z,5.13
2022-10-06T01:10:26.261Z,5.68
2022-10-06T01:12:53.214Z,6.30
2022-10-06T01:15:21.613Z,8.02
2022-10-06T01:18:03.939Z,4.40
2022-10-06T01:20:31.131Z,4.57
2022-10-06T01:23:05.311Z,5.07
2022-10-06T01:25:34.392Z,4.60
2022-10-06T01:28:04.321Z,9.63
2022-10-06T01:30:52.684Z,5.67
2022-10-06T01:33:22.190Z,4.43
2022-10-06T01:35:51.713Z,5.28
2022-10-06T01:38:20.099Z,6.72
2022-10-06T01:40:51.474Z,6.32
2022-10-06T01:43:18.651Z,5.70
2022-10-06T01:45:45.860Z,8.10
2022-10-06T01:48:12.615Z,6.78
2022-10-06T01:50:41.398Z,7.20
2022-10-06T01:53:08.212Z,7.15
2022-10-06T01:55:36.170Z,8.50
2022-10-06T01:58:04.942Z,6.68
2022-10-06T02:00:32.521Z,5.80
2022-10-06T02:02:59.625Z,7.15
2022-10-06T02:05:26.883Z,10.55
2022-10-06T02:07:54.505Z,9.13
2022-10-06T02:10:22.357Z,8.77
2022-10-06T02:12:52.478Z,8.35
2022-10-06T02:15:21.786Z,9.98
2022-10-06T02:17:48.853Z,7.07
2022-10-06T02:20:16.472Z,7.00
2022-10-06T02:22:43.869Z,8.45
2022-10-06T02:25:12.234Z,5.65
2022-10-06T02:27:39.823Z,4.22
2022-10-06T02:30:09.033Z,5.53
2022-10-06T02:32:39.022Z,8.03
2022-10-06T02:35:07.460Z,6.90
2022-10-06T02:37:34.719Z,6.45
2022-10-06T02:40:02.588Z,8.20
2022-10-06T02:42:31.255Z,8.52
2022-10-06T02:44:58.991Z,8.30
2022-10-06T02:47:25.986Z,6.07
2022-10-06T02:49:53.723Z,6.03
2022-10-06T02:52:20.523Z,5.10
2022-10-06T02:54:48.218Z,7.20
2022-10-06T02:57:15.613Z,6.60
2022-10-06T02:59:43.012Z,5.65
2022-10-06T03:02:10.162Z,8.95
2022-10-06T03:04:37.245Z,8.00
2022-10-06T03:07:04.930Z,10.38
2022-10-06T03:09:35.883Z,7.43
2022-10-06T03:12:02.778Z,5.45
2022-10-06T03:14:35.635Z,5.63
2022-10-06T03:17:03.672Z,6.40
2022-10-06T03:19:31.247Z,9.73
2022-10-06T03:21:58.777Z,5.23
2022-10-06T03:24:35.111Z,6.43
2022-10-06T03:27:02.266Z,5.78
2022-10-06T03:29:31.154Z,6.28
2022-10-06T03:31:58.690Z,19.27
2022-10-06T03:34:26.058Z,19.00
2022-10-06T03:36:54.363Z,16.70
2022-10-06T03:39:23.806Z,13.07
2022-10-06T03:41:50.894Z,12.60
2022-10-06T03:44:18.045Z,9.57
2022-10-06T03:46:44.913Z,21.93
2022-10-06T03:49:12.358Z,25.35
2022-10-06T03:51:41.856Z,24.58
2022-10-06T03:54:16.587Z,17.08
2022-10-06T03:56:46.319Z,22.20
2022-10-06T03:59:16.482Z,11.30
2022-10-06T04:01:47.557Z,13.32
2022-10-06T04:04:25.530Z,14.23
2022-10-06T04:06:57.971Z,14.68
2022-10-06T04:09:24.803Z,9.88
2022-10-06T04:11:52.538Z,14.90
2022-10-06T04:14:20.307Z,11.50
2022-10-06T04:16:49.628Z,13.90
2022-10-06T04:19:25.119Z,12.85
2022-10-06T04:21:54.551Z,25.30
2022-10-06T04:24:23.878Z,23.97
2022-10-06T04:26:52.469Z,24.85
2022-10-06T04:29:21.096Z,25.83
2022-10-06T04:31:57.754Z,19.13
2022-10-06T04:34:31.215Z,22.50
2022-10-06T04:36:58.410Z,21.57
2022-10-06T04:39:27.082Z,22.95
2022-10-06T04:41:53.943Z,24.13
2022-10-06T04:44:28.458Z,20.27
2022-10-06T04:46:58.078Z,22.95
2022-10-06T04:49:25.445Z,17.07
2022-10-06T04:51:53.514Z,18.88
2022-10-06T04:54:21.202Z,21.55
2022-10-06T04:56:53.081Z,20.30
2022-10-06T04:59:42.242Z,18.80
2022-10-06T05:02:10.124Z,21.10
2022-10-06T05:04:37.147Z,34.20
2022-10-06T05:07:03.932Z,25.80
2022-10-06T05:09:30.711Z,38.67
2022-10-06T05:11:58.016Z,23.15
2022-10-06T05:14:25.431Z,34.27
2022-10-06T05:16:52.777Z,29.30
2022-10-06T05:19:19.654Z,36.28
2022-10-06T05:21:47.275Z,29.52
2022-10-06T05:24:17.935Z,26.48
2022-10-06T05:26:44.898Z,20.00
2022-10-06T05:29:14.417Z,17.50
2022-10-06T05:31:43.648Z,15.40
2022-10-06T05:34:11.450Z,11.63
2022-10-06T05:36:39.007Z,9.85
2022-10-06T05:39:07.138Z,10.60
2022-10-06T05:41:39.326Z,9.88
2022-10-06T05:44:09.086Z,9.80
2022-10-06T05:46:38.213Z,9.85
2022-10-06T05:49:09.559Z,8.18
2022-10-06T05:51:40.317Z,10.27
2022-10-06T05:54:14.200Z,7.55
2022-10-06T05:56:41.171Z,6.82
2022-10-06T05:59:07.993Z,6.35
2022-10-06T06:01:40.392Z,7.13
2022-10-06T06:04:14.095Z,7.37
2022-10-06T06:06:47.222Z,6.63
2022-10-06T06:09:21.593Z,9.88
2022-10-06T06:11:53.845Z,8.45
2022-10-06T06:14:46.365Z,7.20
2022-10-06T06:17:18.023Z,6.90
2022-10-06T06:19:45.164Z,6.15
2022-10-06T06:22:12.035Z,6.15
2022-10-06T06:24:41.446Z,6.13
2022-10-06T06:27:09.554Z,5.75
2022-10-06T06:29:36.271Z,5.93
2022-10-06T06:32:03.482Z,7.53
2022-10-06T06:34:31.126Z,6.25
2022-10-06T06:37:03.588Z,7.10
2022-10-06T06:39:34.264Z,8.52
2022-10-06T06:42:02.140Z,10.37
2022-10-06T06:44:49.263Z,5.03
2022-10-06T06:47:39.759Z,8.20
2022-10-06T06:50:10.395Z,8.25
2022-10-06T06:52:39.074Z,6.15
2022-10-06T06:55:08.334Z,6.73
2022-10-06T06:57:35.157Z,8.48
2022-10-06T07:00:06.375Z,10.55
2022-10-06T07:02:34.263Z,8.35
2022-10-06T07:05:01.252Z,7.88
2022-10-06T07:07:27.982Z,7.00
2022-10-06T07:09:54.855Z,9.48
2022-10-06T07:12:25.180Z,10.23
2022-10-06T07:15:15.018Z,7.95
2022-10-06T07:18:03.574Z,13.48
2022-10-06T07:20:49.804Z,10.47
2022-10-06T07:23:39.532Z,10.77
2022-10-06T07:26:11.110Z,7.35
2022-10-06T07:28:37.976Z,9.35
2022-10-06T07:31:04.981Z,6.30
2022-10-06T07:33:32.914Z,9.33
2022-10-06T07:36:03.050Z,9.60
2022-10-06T07:38:31.348Z,9.63
2022-10-06T07:43:48.335Z,7.70
2022-10-06T07:46:16.537Z,6.47
2022-10-06T07:48:55.760Z,7.47
2022-10-06T07:51:24.669Z,9.35
2022-10-06T07:53:51.895Z,16.63
2022-10-06T07:56:24.917Z,13.25
2022-10-06T07:58:56.109Z,8.43
2022-10-06T08:01:22.971Z,6.53
2022-10-06T08:03:50.721Z,6.43
2022-10-06T08:06:19.127Z,7.55
2022-10-06T08:08:51.838Z,6.20
2022-10-06T08:11:20.182Z,8.70
2022-10-06T08:13:50.485Z,5.70
2022-10-06T08:16:20.243Z,7.07
2022-10-06T08:18:54.314Z,6.53
2022-10-06T08:21:22.717Z,5.60
2022-10-06T08:23:51.173Z,6.67
2022-10-06T08:26:20.835Z,7.10
2022-10-06T08:28:50.258Z,7.25
2022-10-06T08:31:21.217Z,6.75
2022-10-06T08:33:48.661Z,9.63
2022-10-06T08:36:20.694Z,9.80
2022-10-06T08:38:50.431Z,8.27
2022-10-06T08:41:48.445Z,6.20
2022-10-06T08:44:16.601Z,6.28
2022-10-06T08:46:56.511Z,5.00
2022-10-06T08:49:25.907Z,6.03
2022-10-06T08:52:05.800Z,6.53
2022-10-06T08:54:49.545Z,6.05
2022-10-06T08:57:22.594Z,6.07
2022-10-06T08:59:54.813Z,5.88
2022-10-06T09:02:32.769Z,5.47
2022-10-06T09:05:03.993Z,9.20
2022-10-06T09:07:48.927Z,7.10
2022-10-06T09:10:45.371Z,6.22
2022-10-06T09:13:21.796Z,6.60
2022-10-06T09:16:07.234Z,5.43
2022-10-06T09:19:08.967Z,7.35
2022-10-06T09:21:52.272Z,5.82
2022-10-06T09:24:22.620Z,12.25
2022-10-06T09:26:50.846Z,5.72
2022-10-06T09:29:18.067Z,10.20
2022-10-06T09:31:50.884Z,7.70
2022-10-06T09:34:26.278Z,7.85
2022-10-06T09:37:09.260Z,7.50
2022-10-06T09:39:38.483Z,9.90
2022-10-06T09:42:25.653Z,6.07
2022-10-06T09:45:01.697Z,7.90
2022-10-06T09:47:46.137Z,6.95
2022-10-06T09:50:16.505Z,6.18
2022-10-06T09:53:03.285Z,8.15
2022-10-06T09:55:39.274Z,7.70
2022-10-06T09:58:21.112Z,7.32
2022-10-06T10:00:53.982Z,6.63
2022-10-06T10:03:21.763Z,7.03
2022-10-06T10:05:51.195Z,7.00
2022-10-06T10:08:30.854Z,8.47
2022-10-06T10:11:32.477Z,6.47
2022-10-06T10:13:59.827Z,8.15
2022-10-06T10:16:31.006Z,7.95
2022-10-06T10:18:58.015Z,6.45
2022-10-06T10:21:30.698Z,5.73
2022-10-06T10:23:59.322Z,6.88
2022-10-06T10:26:57.131Z,9.10
2022-10-06T10:29:50.083Z,8.95
2022-10-06T10:32:22.987Z,5.28
2022-10-06T10:35:14.756Z,9.10
2022-10-06T10:37:51.759Z,7.40
2022-10-06T10:40:33.543Z,7.82
2022-10-06T10:43:37.427Z,6.68
2022-10-06T10:46:12.378Z,7.22
2022-10-06T10:48:48.950Z,11.27
2022-10-06T10:51:26.517Z,8.07
2022-10-06T10:54:14.921Z,5.15
2022-10-06T10:56:43.996Z,7.95
2022-10-06T10:59:13.258Z,7.13
2022-10-06T11:01:53.960Z,7.60
2022-10-06T11:04:20.901Z,6.63
2022-10-06T11:07:26.443Z,8.30
2022-10-06T11:09:53.082Z,4.90
2022-10-06T11:12:52.930Z,7.28
2022-10-06T11:15:53.518Z,5.63
2022-10-06T11:18:29.011Z,6.45
2022-10-06T11:21:01.077Z,9.02
2022-10-06T11:23:56.543Z,7.35
2022-10-06T11:26:39.892Z,6.72
2022-10-06T11:29:51.320Z,6.93
2022-10-06T11:32:27.234Z,6.65
2022-10-06T11:34:54.733Z,5.78
2022-10-06T11:37:45.214Z,6.75
2022-10-06T11:40:45.623Z,6.03
2022-10-06T11:43:29.787Z,5.53
2022-10-06T11:46:21.587Z,8.43
2022-10-06T11:48:48.639Z,7.00
2022-10-06T11:51:24.521Z,5.50
2022-10-06T11:53:52.453Z,6.72
2022-10-06T11:56:19.629Z,7.17
2022-10-06T11:58:52.568Z,7.80
2022-10-06T12:01:31.935Z,7.00
2022-10-06T12:04:10.535Z,6.93
2022-10-06T12:06:46.291Z,9.40
2022-10-06T12:09:38.167Z,8.77
2022-10-06T12:12:19.676Z,9.48
2022-10-06T12:16:58.162Z,6.82
2022-10-06T12:18:24.061Z,7.25
2022-10-06T12:21:09.249Z,9.07
2022-10-06T12:24:02.129Z,7.63
2022-10-06T12:26:34.866Z,4.82
2022-10-06T12:29:19.957Z,6.82
2022-10-06T12:31:52.762Z,9.02
2022-10-06T12:34:55.918Z,8.15
2022-10-06T12:37:51.553Z,7.00
2022-10-06T12:40:41.737Z,9.63
2022-10-06T12:43:23.375Z,7.85
2022-10-06T12:45:56.349Z,5.95
2022-10-06T12:48:44.808Z,7.95
2022-10-06T12:51:39.256Z,7.50
2022-10-06T12:54:23.850Z,7.47
2022-10-06T12:57:15.679Z,7.63
2022-10-06T12:59:42.841Z,8.32
2022-10-06T13:02:41.958Z,6.43
2022-10-06T13:05:12.380Z,10.53
2022-10-06T13:08:20.216Z,9.00
2022-10-06T13:10:47.154Z,9.23
2022-10-06T13:13:24.966Z,6.80
2022-10-06T13:16:00.600Z,8.52
2022-10-06T13:18:28.471Z,8.07
2022-10-06T13:20:57.631Z,7.07
2022-10-06T13:23:31.194Z,7.60
2022-10-06T13:26:06.763Z,7.80
2022-10-06T13:28:36.537Z,7.97
2022-10-06T13:31:20.711Z,8.60
2022-10-06T13:34:15.099Z,6.28
2022-10-06T13:36:52.463Z,7.80
2022-10-06T13:39:23.592Z,6.95
2022-10-06T13:41:50.690Z,6.35
2022-10-06T13:44:39.584Z,9.57
2022-10-06T13:47:17.680Z,7.00
2022-10-06T13:49:49.798Z,5.88
2022-10-06T13:52:19.189Z,6.95
2022-10-06T13:54:48.846Z,5.18
2022-10-06T13:57:48.167Z,6.07
2022-10-06T14:00:15.090Z,7.50
2022-10-06T14:02:47.721Z,8.13
2022-10-06T14:05:36.526Z,11.00
2022-10-06T14:08:19.949Z,9.43
2022-10-06T14:10:50.664Z,16.17
2022-10-06T14:13:27.940Z,9.85
2022-10-06T14:15:59.602Z,6.70
2022-10-06T14:18:44.964Z,6.10
2022-10-06T14:21:37.008Z,5.43
2022-10-06T14:24:07.737Z,7.23
2022-10-06T14:26:37.570Z,9.00
2022-10-06T14:29:04.499Z,10.10
2022-10-06T14:31:33.448Z,5.18
2022-10-06T14:34:01.735Z,7.05
2022-10-06T14:36:34.540Z,6.33
2022-10-06T14:39:02.089Z,5.32
2022-10-06T14:41:30.160Z,6.60
2022-10-06T14:43:59.035Z,5.60
2022-10-06T14:46:25.977Z,7.85
2022-10-06T14:48:52.791Z,10.50
2022-10-06T14:51:20.675Z,7.85
2022-10-06T14:53:54.694Z,9.75
2022-10-06T14:56:23.598Z,11.88
2022-10-06T14:58:51.444Z,7.38
2022-10-06T15:01:21.340Z,6.67
2022-10-06T15:03:59.633Z,7.80
2022-10-06T15:06:46.264Z,7.28
2022-10-06T15:09:13.523Z,6.68
2022-10-06T15:11:40.892Z,7.10
2022-10-06T15:14:11.623Z,8.37
2022-10-06T15:16:43.875Z,6.18
2022-10-06T15:19:12.321Z,5.70
2022-10-06T15:21:40.231Z,6.43
2022-10-06T15:24:08.279Z,7.93
2022-10-06T15:26:53.752Z,9.97
2022-10-06T15:29:20.880Z,8.05
2022-10-06T15:31:53.163Z,10.77
2022-10-06T15:34:23.523Z,8.52
2022-10-06T15:36:52.320Z,9.27
2022-10-06T15:39:21.455Z,8.63
2022-10-06T15:41:48.679Z,6.28
2022-10-06T15:44:16.067Z,12.23
2022-10-06T15:46:44.805Z,7.63
2022-10-06T15:49:14.042Z,8.82
2022-10-06T15:51:48.203Z,9.10
2022-10-06T15:54:20.218Z,10.35
2022-10-06T15:56:48.550Z,12.23
2022-10-06T15:59:16.560Z,8.00
2022-10-06T16:01:47.144Z,11.48
2022-10-06T16:04:25.435Z,8.10
2022-10-06T16:06:56.914Z,11.35
2022-10-06T16:09:32.370Z,12.73
2022-10-06T16:12:02.942Z,15.35
2022-10-06T16:14:31.084Z,13.30
2022-10-06T16:17:02.567Z,12.27
2022-10-06T16:19:31.126Z,8.68
2022-10-06T16:21:59.642Z,14.57
2022-10-06T16:24:27.389Z,10.05
2022-10-06T16:26:56.413Z,12.52
2022-10-06T16:29:23.985Z,14.47
2022-10-06T16:31:51.348Z,14.77
2022-10-06T16:34:19.108Z,12.98
2022-10-06T16:36:46.110Z,12.30
2022-10-06T16:39:16.216Z,12.98
2022-10-06T16:41:43.282Z,13.00
2022-10-06T16:44:10.154Z,14.05
2022-10-06T16:46:37.250Z,13.13
2022-10-06T16:49:05.786Z,12.30
2022-10-06T16:51:38.069Z,11.88
2022-10-06T16:54:07.718Z,13.40
2022-10-06T16:56:43.855Z,13.38
2022-10-06T16:59:15.955Z,13.75
2022-10-06T17:01:43.118Z,16.05
2022-10-06T17:04:15.551Z,13.32
2022-10-06T17:06:50.087Z,9.50
2022-10-06T17:09:19.017Z,11.90
2022-10-06T17:11:49.126Z,16.83
2022-10-06T17:14:16.821Z,15.60
2022-10-06T17:16:45.826Z,10.77
2022-10-06T17:19:14.740Z,8.67
2022-10-06T17:21:46.698Z,11.27
2022-10-06T17:24:17.628Z,9.85
2022-10-06T17:26:47.047Z,7.80
2022-10-06T17:29:21.449Z,10.65
2022-10-06T17:31:50.664Z,11.07
2022-10-06T17:34:21.969Z,10.00
2022-10-06T17:36:51.951Z,8.15
2022-10-06T17:39:22.008Z,9.52
2022-10-06T17:41:50.683Z,8.48
2022-10-06T17:44:23.053Z,10.53
2022-10-06T17:46:52.730Z,11.82
2022-10-06T17:49:20.892Z,9.50
2022-10-06T17:51:49.128Z,10.10
2022-10-06T17:54:19.757Z,9.73
2022-10-06T17:56:48.659Z,9.63
2022-10-06T17:59:28.453Z,10.30
2022-10-06T18:01:56.872Z,7.35
2022-10-06T18:04:23.804Z,7.82
2022-10-06T18:06:53.134Z,10.60
2022-10-06T18:09:20.396Z,10.60
2022-10-06T18:11:55.776Z,10.55
2022-10-06T18:14:27.724Z,11.35
2022-10-06T18:17:00.753Z,9.68
2022-10-06T18:19:32.609Z,12.82
2022-10-06T18:22:13.082Z,11.00
2022-10-06T18:24:40.260Z,11.52
2022-10-06T18:27:08.323Z,11.93
2022-10-06T18:29:38.059Z,11.80
2022-10-06T18:37:39.868Z,9.13
2022-10-06T18:40:09.839Z,10.27
2022-10-06T18:42:37.315Z,10.70
2022-10-06T18:45:23.218Z,11.23
2022-10-06T18:48:08.523Z,10.43
2022-10-06T18:50:35.504Z,10.02
2022-10-06T18:53:04.254Z,11.65
2022-10-06T18:55:32.055Z,18.25
2022-10-06T18:57:58.874Z,14.80
2022-10-06T19:00:26.129Z,12.60
2022-10-06T19:02:55.519Z,10.00
2022-10-06T19:05:23.480Z,13.20
2022-10-06T19:07:52.968Z,12.63
2022-10-06T19:10:19.774Z,14.38
2022-10-06T19:12:48.193Z,12.03
2022-10-06T19:15:20.035Z,12.65
2022-10-06T19:17:48.007Z,14.50
2022-10-06T19:20:14.731Z,12.27
2022-10-06T19:22:43.442Z,10.98
2022-10-06T19:25:11.266Z,11.90
2022-10-06T19:27:38.167Z,11.40
2022-10-06T19:30:05.242Z,11.57
2022-10-06T19:32:32.770Z,9.95
2022-10-06T19:34:59.720Z,9.23
2022-10-06T19:37:30.634Z,9.07
2022-10-06T19:39:58.083Z,15.40
2022-10-06T19:42:43.626Z,10.13
2022-10-06T19:45:12.089Z,10.65
2022-10-06T19:47:40.289Z,12.27
2022-10-06T19:50:12.210Z,11.60
2022-10-06T19:52:40.785Z,8.38
2022-10-06T19:55:07.719Z,8.95
2022-10-06T19:57:34.895Z,10.02
2022-10-06T20:00:02.066Z,9.55
2022-10-06T20:02:42.510Z,10.33
2022-10-06T20:05:12.021Z,13.93
2022-10-06T20:07:38.971Z,9.13
2022-10-06T20:10:06.194Z,9.45
2022-10-06T20:12:35.045Z,10.63
2022-10-06T20:15:01.788Z,11.23
2022-10-06T20:17:28.989Z,11.38
2022-10-06T20:19:57.869Z,10.10
2022-10-06T20:22:25.580Z,12.52
2022-10-06T20:24:52.466Z,11.02
2022-10-06T20:27:19.745Z,12.07
2022-10-06T20:29:46.599Z,9.95
2022-10-06T20:32:14.170Z,8.40
2022-10-06T20:34:42.029Z,9.07
2022-10-06T20:37:08.849Z,19.33
2022-10-06T20:39:54.297Z,10.33
2022-10-06T20:42:21.684Z,15.75
2022-10-06T20:44:49.070Z,13.85
2022-10-06T20:47:18.612Z,11.15
2022-10-06T20:49:45.397Z,10.13
2022-10-06T20:52:14.843Z,13.77
2022-10-06T20:54:42.333Z,11.32
2022-10-06T20:57:09.633Z,11.60
2022-10-06T20:59:37.737Z,13.73
2022-10-06T21:02:05.629Z,16.40
2022-10-06T21:04:34.293Z,16.03
2022-10-06T21:07:04.049Z,13.85
2022-10-06T21:09:31.213Z,17.40
2022-10-06T21:11:58.224Z,12.70
2022-10-06T21:14:25.333Z,11.68
2022-10-06T21:16:52.523Z,13.37
2022-10-06T21:19:19.767Z,12.48
2022-10-06T21:21:53.362Z,17.52
2022-10-06T21:24:20.763Z,16.92
2022-10-06T21:26:48.266Z,16.95
2022-10-06T21:29:15.633Z,22.83
2022-10-06T21:31:43.645Z,28.63
2022-10-06T21:34:10.885Z,24.55
2022-10-06T21:36:38.449Z,20.60
2022-10-06T21:39:06.220Z,19.98
2022-10-06T21:41:40.704Z,22.20
2022-10-06T21:44:15.391Z,19.90
2022-10-06T21:46:55.895Z,20.60
2022-10-06T21:49:24.730Z,19.95
2022-10-06T21:51:54.227Z,21.08
2022-10-06T21:54:23.197Z,20.10
2022-10-06T21:56:50.373Z,21.42
2022-10-06T21:59:17.258Z,23.83
2022-10-06T22:01:46.574Z,20.48
2022-10-06T22:04:14.669Z,18.83
2022-10-06T22:06:43.319Z,23.80
2022-10-06T22:09:14.382Z,25.48
2022-10-06T22:11:41.480Z,19.88
2022-10-06T22:14:12.257Z,18.20
2022-10-06T22:16:39.364Z,18.20
2022-10-06T22:19:09.078Z,18.40
2022-10-06T22:21:41.321Z,18.27
2022-10-06T22:24:10.596Z,20.80
2022-10-06T22:26:38.774Z,16.05
2022-10-06T22:29:08.158Z,20.42
2022-10-06T22:31:38.053Z,16.07
2022-10-06T22:34:05.071Z,18.73
2022-10-06T22:36:33.437Z,17.30
2022-10-06T22:39:01.004Z,15.05
2022-10-06T22:41:27.857Z,13.52
2022-10-06T22:43:57.622Z,12.00
2022-10-06T22:46:25.993Z,12.77
2022-10-06T22:48:53.433Z,9.38
2022-10-06T22:51:21.319Z,11.38
2022-10-06T22:53:56.683Z,12.98
2022-10-06T22:56:25.278Z,11.93
2022-10-06T22:58:52.074Z,11.70
2022-10-06T23:01:19.734Z,10.30
2022-10-06T23:03:47.770Z,8.15
2022-10-06T23:06:16.393Z,10.20
2022-10-06T23:08:43.653Z,10.33
2022-10-06T23:11:13.861Z,13.07
2022-10-06T23:13:41.105Z,11.27
2022-10-06T23:16:10.233Z,12.98
2022-10-06T23:18:39.056Z,9.85
2022-10-06T23:21:24.048Z,10.57
2022-10-06T23:23:53.865Z,10.82
2022-10-06T23:26:22.033Z,12.30
2022-10-06T23:28:54.427Z,13.38
2022-10-06T23:31:21.401Z,12.38
2022-10-06T23:33:48.806Z,15.83
2022-10-06T23:36:15.925Z,12.00
2022-10-06T23:38:42.808Z,17.50
2022-10-06T23:41:09.684Z,22.40
2022-10-06T23:43:36.520Z,16.23
2022-10-06T23:46:04.440Z,18.07
2022-10-06T23:48:31.468Z,18.60
2022-10-06T23:51:16.300Z,14.13
2022-10-06T23:53:43.559Z,17.15
2022-10-06T23:56:10.857Z,13.45
2022-10-06T23:58:37.677Z,16.87
